Terminal Aerodrome Forecast
Issued by NWS

Home | Current Version | Previous Version | Text Only | Print | Product List | Glossary On
Versions: 1 2 3 4 5 6 7 8 9 10 11 12 13 14 15 16 17 18
000
FTAK31 PAFA 221139
TAFAMC
TAF
PAMC 221139Z 2212/2312 22009KT P6SM -FZRA OVC013
     FM221800 22009KT 2SM -FZRASN BR BKN007 OVC015
     FM222000 27014G22KT 3SM -SN BR SCT007 SCT015 OVC025
     FM230200 26016G22KT 1 1/2SM -SN BLSN FEW007 BKN015 OVC025
     FM231000 24011KT 2SM -SN BR SCT007 OVC015=

USA.gov is the U.S. government's official web portal to all federal, state and local government web resources and services.